createdAt,value
2018-06-11T00:01:14.951Z,81.90
2018-06-11T00:05:36.884Z,81.90
2018-06-11T00:11:56.868Z,83.00
2018-06-11T00:14:05.200Z,83.20
2018-06-11T00:16:14.145Z,83.50
2018-06-11T00:18:22.811Z,83.70
2018-06-11T00:20:27.264Z,83.50
2018-06-11T00:22:48.730Z,83.60
2018-06-11T00:24:57.388Z,83.50
2018-06-11T00:27:07.172Z,83.60
2018-06-11T00:29:25.753Z,83.60
2018-06-11T00:31:32.243Z,83.40
2018-06-11T00:33:41.753Z,83.40
2018-06-11T00:36:20.578Z,83.30
2018-06-11T00:40:54.944Z,82.90
2018-06-11T00:48:23.028Z,82.70
2018-06-11T00:50:49.512Z,82.90
2018-06-11T00:52:58.787Z,82.70
2018-06-11T00:55:22.299Z,82.60
2018-06-11T00:57:35.674Z,82.40
2018-06-11T01:02:21.227Z,82.60
2018-06-11T01:04:25.725Z,82.60
2018-06-11T01:06:33.409Z,83.00
2018-06-11T01:08:37.408Z,83.10
2018-06-11T01:10:41.415Z,83.00
2018-06-11T01:12:47.098Z,82.80
2018-06-11T01:14:51.203Z,83.10
2018-06-11T01:16:55.483Z,83.00
2018-06-11T01:19:00.721Z,83.50
2018-06-11T01:21:04.910Z,83.60
2018-06-11T01:23:09.811Z,83.60
2018-06-11T01:25:15.781Z,83.80
2018-06-11T01:27:20.708Z,83.60
2018-06-11T01:29:25.298Z,83.40
2018-06-11T01:31:30.809Z,83.40
2018-06-11T01:33:35.379Z,83.80
2018-06-11T01:35:39.314Z,83.50
2018-06-11T01:37:43.849Z,83.50
2018-06-11T01:39:51.864Z,83.10
2018-06-11T01:41:57.104Z,83.00
2018-06-11T01:44:01.603Z,83.00
2018-06-11T01:46:07.037Z,83.50
2018-06-11T01:48:11.094Z,83.60
2018-06-11T01:52:20.300Z,83.80
2018-06-11T01:54:24.468Z,84.20
2018-06-11T01:56:32.741Z,84.20
2018-06-11T01:58:46.531Z,84.00
2018-06-11T02:03:03.175Z,84.20
2018-06-11T02:05:08.672Z,83.70
2018-06-11T02:07:16.996Z,84.30
2018-06-11T02:09:24.132Z,85.10
2018-06-11T02:11:34.192Z,85.40
2018-06-11T02:13:46.262Z,85.30
2018-06-11T02:18:50.872Z,85.90
2018-06-11T02:26:56.319Z,86.20
2018-06-11T02:31:42.439Z,86.80
2018-06-11T02:33:47.714Z,86.60
2018-06-11T02:35:53.960Z,86.60
2018-06-11T02:38:00.224Z,86.20
2018-06-11T02:40:06.341Z,86.30
2018-06-11T02:44:17.594Z,86.20
2018-06-11T02:46:26.655Z,86.60
2018-06-11T02:48:32.671Z,86.60
2018-06-11T02:50:37.350Z,86.80
2018-06-11T02:54:51.268Z,86.80
2018-06-11T02:56:55.863Z,86.70
2018-06-11T02:59:01.105Z,86.60
2018-06-11T03:01:05.490Z,86.60
2018-06-11T03:03:09.404Z,87.00
2018-06-11T03:05:13.882Z,87.00
2018-06-11T03:07:17.844Z,87.10
2018-06-11T03:09:21.821Z,87.20
2018-06-11T03:11:25.953Z,87.80
2018-06-11T03:13:30.224Z,87.90
2018-06-11T03:15:34.755Z,88.30
2018-06-11T03:17:39.151Z,88.40
2018-06-11T03:19:43.127Z,88.30
2018-06-11T03:21:48.111Z,88.40
2018-06-11T03:23:52.087Z,88.60
2018-06-11T03:25:56.925Z,88.80
2018-06-11T03:28:01.015Z,88.80
2018-06-11T03:30:07.638Z,88.80
2018-06-11T03:32:12.559Z,89.00
2018-06-11T03:34:19.368Z,89.20
2018-06-11T03:36:28.349Z,89.40
2018-06-11T03:38:32.623Z,89.50
2018-06-11T03:40:37.549Z,89.00
2018-06-11T03:42:44.729Z,89.10
2018-06-11T03:44:50.948Z,89.40
2018-06-11T03:46:55.728Z,89.50
2018-06-11T03:49:00.223Z,89.30
2018-06-11T03:51:04.145Z,88.70
2018-06-11T03:53:14.122Z,88.60
2018-06-11T03:55:19.739Z,88.50
2018-06-11T03:57:23.703Z,89.10
2018-06-11T03:59:27.757Z,88.80
2018-06-11T04:01:32.898Z,88.40
2018-06-11T04:03:38.758Z,88.60
2018-06-11T04:05:45.941Z,88.60
2018-06-11T04:07:52.327Z,88.50
2018-06-11T04:10:13.862Z,88.30
2018-06-11T04:14:36.465Z,87.90
2018-06-11T04:16:43.069Z,87.40
2018-06-11T04:18:50.919Z,86.80
2018-06-11T04:20:57.977Z,87.00
2018-06-11T04:23:04.224Z,87.10
2018-06-11T04:25:17.662Z,87.20
2018-06-11T04:29:28.046Z,87.50
2018-06-11T04:34:09.147Z,87.60
2018-06-11T04:36:18.885Z,87.90
2018-06-11T04:42:27.772Z,87.20
2018-06-11T04:48:52.030Z,86.30
2018-06-11T04:50:55.988Z,85.60
2018-06-11T04:53:00.455Z,84.60
2018-06-11T05:00:32.171Z,83.60
2018-06-11T05:02:45.647Z,83.50
2018-06-11T05:04:50.774Z,82.50
2018-06-11T05:06:59.096Z,81.80
2018-06-11T05:09:03.158Z,82.30
2018-06-11T05:11:08.734Z,81.40
2018-06-11T05:13:16.932Z,81.40
2018-06-11T05:15:20.829Z,81.30
2018-06-11T05:17:28.587Z,80.40
2018-06-11T05:19:37.527Z,80.60
2018-06-11T05:21:43.198Z,80.00
2018-06-11T05:23:48.393Z,79.10
2018-06-11T05:25:52.710Z,78.90
2018-06-11T05:27:57.469Z,79.20
2018-06-11T05:30:01.468Z,78.60
2018-06-11T05:32:06.738Z,78.50
2018-06-11T05:34:14.162Z,77.90
2018-06-11T05:36:48.285Z,78.40
2018-06-11T05:41:25.486Z,78.00
2018-06-11T05:45:41.654Z,77.70
2018-06-11T05:47:48.413Z,77.00
2018-06-11T05:56:02.183Z,75.80
2018-06-11T06:02:52.013Z,77.00
2018-06-11T06:05:04.062Z,78.60
2018-06-11T06:07:21.199Z,79.40
2018-06-11T06:09:27.888Z,78.80
2018-06-11T06:11:35.697Z,79.00
2018-06-11T06:13:47.961Z,78.50
2018-06-11T06:30:57.789Z,77.00
2018-06-11T06:33:09.962Z,72.60
2018-06-11T06:35:22.395Z,72.90
2018-06-11T06:37:30.353Z,73.20
2018-06-11T06:39:42.450Z,73.10
2018-06-11T06:41:55.858Z,71.80
2018-06-11T06:44:00.606Z,71.30
2018-06-11T06:46:06.229Z,70.20
2018-06-11T06:48:14.253Z,69.80
2018-06-11T06:50:20.410Z,70.70
2018-06-11T06:54:27.100Z,70.70
2018-06-11T06:56:32.243Z,70.70
2018-06-11T06:58:37.082Z,70.40
2018-06-11T07:03:21.438Z,70.10
2018-06-11T07:05:27.282Z,69.30
2018-06-11T07:07:48.884Z,69.00
2018-06-11T07:09:57.698Z,68.20
2018-06-11T07:12:10.141Z,69.00
2018-06-11T07:14:17.948Z,69.50
2018-06-11T07:16:38.849Z,69.50
2018-06-11T07:18:44.397Z,69.30
2018-06-11T07:21:29.562Z,67.60
2018-06-11T07:28:30.411Z,66.90
2018-06-11T07:30:49.220Z,65.80
2018-06-11T07:47:04.433Z,67.80
2018-06-11T07:51:14.327Z,67.60
2018-06-11T07:53:28.360Z,67.60
2018-06-11T07:55:37.203Z,68.20
2018-06-11T07:57:45.465Z,67.80
2018-06-11T07:59:53.027Z,67.30
2018-06-11T08:06:44.658Z,66.70
2018-06-11T08:12:49.014Z,64.40
2018-06-11T08:14:56.906Z,65.00
2018-06-11T08:17:04.002Z,66.40
2018-06-11T08:19:09.030Z,66.50
2018-06-11T08:21:13.853Z,65.80
2018-06-11T08:23:19.815Z,65.40
2018-06-11T08:25:27.774Z,65.70
2018-06-11T08:27:33.462Z,65.60
2018-06-11T08:29:40.317Z,63.40
2018-06-11T08:31:54.665Z,63.80
2018-06-11T08:34:03.781Z,64.00
2018-06-11T08:36:08.602Z,65.30
2018-06-11T08:38:17.802Z,65.00
2018-06-11T08:40:22.452Z,65.80
2018-06-11T08:42:26.913Z,65.60
2018-06-11T08:44:33.561Z,65.80
2018-06-11T08:46:40.855Z,66.40
2018-06-11T08:48:46.791Z,66.40
2018-06-11T08:50:52.959Z,66.00
2018-06-11T09:04:31.827Z,66.20
2018-06-11T09:33:29.037Z,68.60
2018-06-11T09:35:36.530Z,68.60
2018-06-11T09:37:40.836Z,68.50
2018-06-11T09:39:45.449Z,68.40
2018-06-11T09:41:49.481Z,68.80
2018-06-11T09:43:54.428Z,68.10
2018-06-11T09:46:03.263Z,67.40
2018-06-11T09:50:12.323Z,65.60
2018-06-11T09:52:24.108Z,65.20
2018-06-11T09:54:35.676Z,64.80
2018-06-11T09:59:04.283Z,63.90
2018-06-11T10:01:16.664Z,64.70
2018-06-11T10:03:21.690Z,65.60
2018-06-11T10:05:31.583Z,66.10
2018-06-11T10:07:35.685Z,66.30
2018-06-11T10:09:41.966Z,67.10
2018-06-11T10:11:46.307Z,66.10
2018-06-11T10:13:53.402Z,67.50
2018-06-11T10:18:06.450Z,66.90
2018-06-11T10:20:19.223Z,67.70
2018-06-11T10:22:24.737Z,66.60
2018-06-11T10:24:29.473Z,65.30
2018-06-11T10:26:33.972Z,65.80
2018-06-11T10:28:38.950Z,66.20
2018-06-11T10:30:46.120Z,65.70
2018-06-11T10:32:53.372Z,64.70
2018-06-11T10:37:23.449Z,65.80
2018-06-11T10:39:30.526Z,65.10
2018-06-11T10:41:35.494Z,65.10
2018-06-11T10:47:55.257Z,64.40
2018-06-11T10:50:04.090Z,64.70
2018-06-11T10:52:13.303Z,64.20
2018-06-11T10:54:18.338Z,63.90
2018-06-11T10:56:53.686Z,63.20
2018-06-11T10:59:01.772Z,62.90
2018-06-11T11:01:06.135Z,63.50
2018-06-11T11:03:13.087Z,62.70
2018-06-11T11:05:23.098Z,63.80
2018-06-11T11:07:31.665Z,63.50
2018-06-11T11:09:36.807Z,62.00
2018-06-11T11:11:47.081Z,61.80
2018-06-11T11:14:09.983Z,62.40
2018-06-11T11:16:19.793Z,62.50
2018-06-11T11:18:25.756Z,61.80
2018-06-11T11:20:31.959Z,61.00
2018-06-11T11:22:41.381Z,62.00
2018-06-11T11:24:49.273Z,61.10
2018-06-11T11:26:55.627Z,59.80
2018-06-11T11:29:17.478Z,59.80
2018-06-11T11:31:23.503Z,60.20
2018-06-11T11:33:29.435Z,60.70
2018-06-11T11:35:37.731Z,60.40
2018-06-11T11:37:42.499Z,60.70
2018-06-11T11:39:48.092Z,61.20
2018-06-11T11:41:52.100Z,61.20
2018-06-11T11:46:06.037Z,60.20
2018-06-11T11:48:14.550Z,60.90
2018-06-11T11:50:18.687Z,61.80
2018-06-11T11:52:25.763Z,60.80
2018-06-11T11:54:40.021Z,60.60
2018-06-11T11:56:49.511Z,60.60
2018-06-11T11:59:55.632Z,60.80
2018-06-11T12:02:34.952Z,61.70
2018-06-11T12:10:02.813Z,62.40
2018-06-11T12:12:18.587Z,61.70
2018-06-11T12:14:44.336Z,63.20
2018-06-11T12:20:08.791Z,64.20
2018-06-11T12:22:31.737Z,64.70
2018-06-11T12:25:22.929Z,65.00
2018-06-11T12:27:31.224Z,65.10
2018-06-11T12:29:42.060Z,65.60
2018-06-11T12:31:54.818Z,64.50
2018-06-11T12:34:02.604Z,64.20
2018-06-11T12:36:13.898Z,65.00
2018-06-11T12:43:36.644Z,65.70
2018-06-11T12:48:54.836Z,67.20
2018-06-11T13:00:19.217Z,67.40
2018-06-11T13:02:24.622Z,67.90
2018-06-11T13:04:31.729Z,67.80
2018-06-11T13:06:39.414Z,68.30
2018-06-11T13:08:47.908Z,68.50
2018-06-11T13:10:57.250Z,68.40
2018-06-11T13:15:15.734Z,69.80
2018-06-11T13:17:30.634Z,70.00
2018-06-11T13:19:45.191Z,70.20
2018-06-11T13:21:52.956Z,69.70
2018-06-11T13:24:00.650Z,70.50
2018-06-11T13:26:05.511Z,70.90
2018-06-11T13:28:16.455Z,71.30
2018-06-11T13:30:24.094Z,71.30
2018-06-11T13:34:41.476Z,72.60
2018-06-11T13:39:16.356Z,73.50
2018-06-11T13:41:30.139Z,73.80
2018-06-11T13:43:37.826Z,73.80
2018-06-11T13:47:21.999Z,73.80
2018-06-11T13:49:41.626Z,74.00
2018-06-11T13:52:39.626Z,74.40
2018-06-11T13:54:49.260Z,75.00
2018-06-11T13:56:58.421Z,75.40
2018-06-11T13:59:06.340Z,75.50
2018-06-11T14:01:18.456Z,75.90
2018-06-11T14:03:35.289Z,76.00
2018-06-11T14:05:39.753Z,76.60
2018-06-11T14:07:43.799Z,77.00
2018-06-11T14:09:50.934Z,77.00
2018-06-11T14:11:56.053Z,77.40
2018-06-11T14:14:03.294Z,78.20
2018-06-11T14:16:08.826Z,78.20
2018-06-11T14:18:14.349Z,78.40
2018-06-11T14:20:22.378Z,78.10
2018-06-11T14:22:46.101Z,78.60
2018-06-11T14:27:54.119Z,78.30
2018-06-11T14:30:23.791Z,78.30
2018-06-11T14:32:34.907Z,78.60
2018-06-11T14:37:01.910Z,79.10
2018-06-11T14:39:14.483Z,79.20
2018-06-11T14:41:25.336Z,80.00
2018-06-11T14:46:40.558Z,80.40
2018-06-11T14:48:55.839Z,81.50
2018-06-11T14:51:04.852Z,81.60
2018-06-11T14:53:13.617Z,82.50
2018-06-11T14:55:24.010Z,83.30
2018-06-11T14:57:32.648Z,84.00
2018-06-11T14:59:43.106Z,84.30
2018-06-11T15:04:56.517Z,85.20
2018-06-11T15:07:03.077Z,85.10
2018-06-11T15:09:11.914Z,85.70
2018-06-11T15:13:27.692Z,87.40
2018-06-11T15:15:54.172Z,88.40
2018-06-11T15:18:14.471Z,89.30
2018-06-11T15:30:25.426Z,91.70
2018-06-11T15:32:42.883Z,92.30
2018-06-11T15:37:01.372Z,92.80
2018-06-11T15:39:08.586Z,92.90
2018-06-11T15:41:17.384Z,93.00
2018-06-11T15:43:31.816Z,93.00
2018-06-11T16:05:19.570Z,93.50
2018-06-11T16:07:35.662Z,94.80
2018-06-11T16:09:48.989Z,94.90
2018-06-11T16:11:53.072Z,95.10
2018-06-11T16:14:13.171Z,95.00
2018-06-11T16:52:03.562Z,94.80
2018-06-11T17:02:10.675Z,95.50
2018-06-11T17:04:16.254Z,95.20
2018-06-11T17:06:28.118Z,95.30
2018-06-11T17:08:37.542Z,95.30
2018-06-11T17:10:45.075Z,95.30
2018-06-11T17:12:53.553Z,95.30
2018-06-11T17:15:03.992Z,95.10
2018-06-11T18:02:42.742Z,95.20
2018-06-11T18:07:38.942Z,95.10
2018-06-11T18:09:47.506Z,95.10
2018-06-11T18:12:02.481Z,95.00
2018-06-11T18:14:09.484Z,95.10
2018-06-11T18:27:11.419Z,94.90
2018-06-11T18:36:07.333Z,94.50
2018-06-11T18:38:22.218Z,94.70
2018-06-11T18:40:33.866Z,94.60
2018-06-11T18:42:40.504Z,94.70
2018-06-11T18:47:07.710Z,94.90
2018-06-11T18:49:16.340Z,94.90
2018-06-11T18:51:34.228Z,94.80
2018-06-11T18:53:52.117Z,94.70
2018-06-11T18:56:14.019Z,94.80
2018-06-11T19:00:49.940Z,94.50
2018-06-11T19:03:05.875Z,94.30
2018-06-11T19:05:22.994Z,94.60
2018-06-11T19:07:30.440Z,94.50
2018-06-11T19:09:47.326Z,94.30
2018-06-11T19:14:24.071Z,94.60
2018-06-11T19:45:23.660Z,94.60
2018-06-11T19:51:50.378Z,94.20
2018-06-11T19:53:59.706Z,94.00
2018-06-11T19:56:32.583Z,94.10
2018-06-11T19:58:47.139Z,93.90
2018-06-11T20:10:07.059Z,94.20
2018-06-11T20:17:04.906Z,94.30
2018-06-11T20:19:17.868Z,94.20
2018-06-11T20:21:45.441Z,94.00
2018-06-11T20:23:54.399Z,93.90
2018-06-11T20:26:00.717Z,93.60
2018-06-11T20:28:36.041Z,93.70
2018-06-11T20:32:58.105Z,94.00
2018-06-11T20:39:18.403Z,93.10
2018-06-11T20:41:25.221Z,93.00
2018-06-11T20:43:35.559Z,92.90
2018-06-11T20:58:32.480Z,93.10
2018-06-11T21:00:49.297Z,92.80
2018-06-11T21:03:00.496Z,93.10
2018-06-11T21:05:09.640Z,93.00
2018-06-11T21:07:20.297Z,93.10
2018-06-11T21:09:39.377Z,93.10
2018-06-11T21:11:45.670Z,93.00
2018-06-11T21:15:58.831Z,93.20
2018-06-11T21:18:04.562Z,93.40
2018-06-11T21:20:15.548Z,93.30
2018-06-11T21:22:27.747Z,93.30
2018-06-11T21:24:33.193Z,93.40
2018-06-11T21:26:40.029Z,93.30
2018-06-11T21:28:46.980Z,93.20
2018-06-11T21:30:53.177Z,93.40
2018-06-11T21:35:03.773Z,93.30
2018-06-11T21:37:09.413Z,93.40
2018-06-11T21:41:18.201Z,93.60
2018-06-11T21:43:24.302Z,93.60
2018-06-11T21:45:35.699Z,93.50
2018-06-11T21:47:44.264Z,93.40
2018-06-11T22:00:28.305Z,93.40
2018-06-11T22:02:35.710Z,93.10
2018-06-11T22:04:40.617Z,93.30
2018-06-11T22:06:45.831Z,93.40
2018-06-11T22:08:53.657Z,93.70
2018-06-11T22:13:12.806Z,93.50
2018-06-11T22:15:17.574Z,93.40
2018-06-11T22:17:27.313Z,93.20
2018-06-11T22:19:34.197Z,93.30
2018-06-11T22:21:50.009Z,93.00
2018-06-11T22:24:09.889Z,93.10
2018-06-11T22:26:15.688Z,92.70
2018-06-11T22:28:22.356Z,92.50
2018-06-11T22:30:30.341Z,92.80
2018-06-11T22:32:37.750Z,92.70
2018-06-11T22:34:43.521Z,92.30
2018-06-11T22:36:48.554Z,92.30
2018-06-11T22:38:53.560Z,92.30
2018-06-11T22:40:58.251Z,92.20
2018-06-11T22:43:04.450Z,92.30
2018-06-11T22:45:09.163Z,92.30
2018-06-11T22:47:15.697Z,92.30
2018-06-11T23:07:39.564Z,91.40
2018-06-11T23:09:50.320Z,90.90
2018-06-11T23:12:47.023Z,91.00
2018-06-11T23:15:16.113Z,91.20
2018-06-11T23:17:28.611Z,91.10
2018-06-11T23:19:34.937Z,90.70
2018-06-11T23:21:40.772Z,90.50
2018-06-11T23:23:48.616Z,90.50
2018-06-11T23:25:57.346Z,90.70
2018-06-11T23:28:03.291Z,90.50
2018-06-11T23:30:12.506Z,90.50
2018-06-11T23:32:22.521Z,90.40
2018-06-11T23:40:24.108Z,90.10
2018-06-11T23:49:49.331Z,89.00
